Time;durP1;ratioP1;P1;durP2;ratioP2;P2;SDS_P1;SDS_P2;PMS_P1;PMS_P2;Temp;Humidity;BMP_temperature;BMP_pressure;BME280_temperature;BME280_humidity;BME280_pressure;Samples;Min_cycle;Max_cycle;Signal;HPM_P1;HPM_P2
2023/03/19 00:00:51;;;;;;;42.00;28.60;;;;;;;6.54;47.91;100622.53;102547;279;120799;-53
2023/03/19 00:03:54;;;;;;;27.50;15.50;;;;;;;6.49;48.30;100625.66;102557;278;105131;-57
2023/03/19 00:06:31;;;;;;;23.90;14.60;;;;;;;6.46;48.20;100621.74;102507;278;114517;-53
2023/03/19 00:09:14;;;;;;;23.20;13.10;;;;;;;6.41;48.37;100618.89;102502;278;92084;-53
2023/03/19 00:11:56;;;;;;;22.70;12.40;;;;;;;6.40;48.43;100617.67;102536;278;97907;-57
2023/03/19 00:14:35;;;;;;;21.60;12.80;;;;;;;6.39;48.72;100619.71;102552;278;120745;-58
2023/03/19 00:17:12;;;;;;;21.70;12.60;;;;;;;6.37;48.84;100613.17;102529;278;106017;-54
2023/03/19 00:19:51;;;;;;;23.20;13.00;;;;;;;6.38;48.84;100613.40;102384;279;113509;-54
2023/03/19 00:22:29;;;;;;;24.40;13.00;;;;;;;6.37;48.92;100616.44;102505;278;94173;-60
2023/03/19 00:25:04;;;;;;;21.10;13.50;;;;;;;6.37;49.02;100616.27;102555;278;97664;-53
2023/03/19 00:27:41;;;;;;;22.20;12.50;;;;;;;6.37;49.16;100613.05;102528;278;121304;-58
2023/03/19 00:30:17;;;;;;;23.70;12.50;;;;;;;6.33;49.24;100611.66;102507;278;106073;-57
2023/03/19 00:32:53;;;;;;;22.30;13.30;;;;;;;6.29;49.31;100609.92;102590;278;114233;-54
2023/03/19 00:35:34;;;;;;;23.70;12.50;;;;;;;6.26;49.26;100606.78;102517;278;91653;-55
2023/03/19 00:38:10;;;;;;;22.20;12.90;;;;;;;6.20;49.38;100612.23;102517;278;98128;-58
2023/03/19 00:40:53;;;;;;;23.20;13.00;;;;;;;6.14;49.36;100612.95;102527;278;119899;-57
2023/03/19 00:43:29;;;;;;;21.80;13.50;;;;;;;6.06;49.53;100607.83;102553;278;104544;-59
2023/03/19 00:46:04;;;;;;;25.50;13.10;;;;;;;6.04;49.83;100606.23;102520;278;114894;-59
2023/03/19 00:48:43;;;;;;;23.30;13.70;;;;;;;6.03;50.04;100605.97;102512;278;93096;-58
2023/03/19 00:51:22;;;;;;;24.60;13.60;;;;;;;6.00;49.90;100601.84;102519;278;97514;-57
2023/03/19 00:53:59;;;;;;;22.80;12.70;;;;;;;5.96;49.94;100602.27;102530;278;120931;-58
2023/03/19 00:56:44;;;;;;;26.20;13.50;;;;;;;5.90;50.04;100604.05;102486;279;105596;-59
2023/03/19 00:59:25;;;;;;;23.50;13.00;;;;;;;5.87;50.03;100602.91;102491;278;114984;-58
2023/03/19 01:01:59;;;;;;;26.60;14.10;;;;;;;5.84;50.16;100605.91;102524;278;93859;-54
2023/03/19 01:04:32;;;;;;;;;;;;;;;5.81;50.56;100606.88;102510;267;97734;-53
2023/03/19 01:07:07;;;;;;;24.10;14.30;;;;;;;5.77;50.45;100608.55;102564;278;119214;-55
2023/03/19 01:09:43;;;;;;;;;;;;;;;5.73;50.58;100606.00;102587;278;104602;-54
2023/03/19 01:12:19;;;;;;;28.50;13.60;;;;;;;5.67;50.95;100606.78;102583;278;113459;-53
2023/03/19 01:14:53;;;;;;;23.10;13.50;;;;;;;5.62;50.95;100603.81;102546;279;92548;-54
2023/03/19 01:17:33;;;;;;;26.10;15.10;;;;;;;5.59;50.92;100605.38;102533;279;96695;-59
2023/03/19 01:20:12;;;;;;;25.90;14.30;;;;;;;5.57;51.02;100607.25;102406;274;120303;-59
2023/03/19 01:22:56;;;;;;;29.20;15.50;;;;;;;5.55;51.26;100607.05;102544;279;106096;-59
2023/03/19 01:25:42;;;;;;;26.10;13.70;;;;;;;5.55;51.28;100606.22;102526;279;114277;-59
2023/03/19 01:28:19;;;;;;;23.50;13.50;;;;;;;5.53;51.36;100610.85;102556;279;93983;-58
2023/03/19 01:31:01;;;;;;;26.80;15.30;;;;;;;5.50;51.49;100612.26;102523;278;96514;-57
2023/03/19 01:33:36;;;;;;;26.60;14.90;;;;;;;5.49;51.74;100615.56;102530;279;119715;-57
2023/03/19 01:36:12;;;;;;;26.10;14.70;;;;;;;5.50;51.69;100615.77;102503;279;105991;-53
2023/03/19 01:38:48;;;;;;;29.90;14.50;;;;;;;5.49;51.69;100616.40;102544;279;114512;-58
2023/03/19 01:41:36;;;;;;;27.20;14.30;;;;;;;5.48;51.90;100616.05;102534;279;93158;-60
2023/03/19 01:44:30;;;;;;;24.70;13.90;;;;;;;5.43;51.89;100612.59;102538;278;97913;-54
2023/03/19 01:47:13;;;;;;;23.50;13.70;;;;;;;5.39;52.06;100615.42;102585;278;121400;-58
2023/03/19 01:49:58;;;;;;;24.90;13.90;;;;;;;5.37;52.18;100615.98;102556;279;105265;-57
2023/03/19 01:52:49;;;;;;;22.10;13.50;;;;;;;5.35;52.22;100615.98;102534;279;114662;-57
2023/03/19 01:55:31;;;;;;;26.50;13.70;;;;;;;5.32;52.31;100611.84;102482;278;94259;-57
2023/03/19 01:58:12;;;;;;;23.80;15.10;;;;;;;5.30;52.40;100612.71;102549;279;97298;-58
2023/03/19 02:00:55;;;;;;;26.50;15.10;;;;;;;5.29;52.24;100612.00;102572;278;120344;-57
2023/03/19 02:03:37;;;;;;;27.70;14.40;;;;;;;5.27;52.44;100613.45;102550;278;103923;-58
2023/03/19 02:06:13;;;;;;;24.10;13.80;;;;;;;5.24;52.60;100607.27;102511;279;114115;-59
2023/03/19 02:08:51;;;;;;;27.00;15.20;;;;;;;5.24;52.66;100609.80;102590;278;92996;-54
2023/03/19 02:11:28;;;;;;;25.20;14.10;;;;;;;5.21;52.57;100608.96;102547;278;97320;-55
2023/03/19 02:14:09;;;;;;;24.50;13.90;;;;;;;5.19;52.66;100609.23;102455;279;120302;-53
2023/03/19 02:16:51;;;;;;;25.30;14.80;;;;;;;5.17;52.83;100606.41;102562;279;103778;-55
2023/03/19 02:19:41;;;;;;;22.40;13.70;;;;;;;5.17;53.06;100604.59;102548;279;113942;-54
2023/03/19 02:22:18;;;;;;;24.40;14.10;;;;;;;5.17;53.01;100601.16;102531;278;93138;-52
2023/03/19 02:25:01;;;;;;;24.90;15.00;;;;;;;5.13;53.11;100601.38;102514;278;97545;-55
2023/03/19 02:27:41;;;;;;;27.50;15.60;;;;;;;5.10;53.20;100597.05;102532;279;120187;-58
2023/03/19 02:30:32;;;;;;;25.50;15.00;;;;;;;5.09;53.51;100597.23;102534;279;105737;-60
2023/03/19 02:33:10;;;;;;;26.90;15.60;;;;;;;5.08;53.42;100600.34;102521;268;114943;-54
2023/03/19 02:35:53;;;;;;;29.60;15.60;;;;;;;5.08;53.61;100596.55;102518;279;91833;-54
2023/03/19 02:38:32;;;;;;;26.50;15.90;;;;;;;5.09;53.72;100600.75;102593;279;97807;-58
2023/03/19 02:41:10;;;;;;;27.50;15.40;;;;;;;5.09;53.58;100603.63;102510;278;120789;-58
2023/03/19 02:43:54;;;;;;;25.50;15.10;;;;;;;5.06;53.68;100607.50;102582;278;103867;-59
2023/03/19 02:46:28;;;;;;;24.80;14.30;;;;;;;5.04;53.83;100611.05;102544;278;113918;-57
2023/03/19 02:49:05;;;;;;;26.90;15.00;;;;;;;5.02;53.92;100613.36;102522;267;93486;-59
2023/03/19 02:51:40;;;;;;;26.20;14.90;;;;;;;5.00;53.93;100610.38;102589;278;97981;-59
2023/03/19 02:54:15;;;;;;;23.10;14.30;;;;;;;4.98;53.90;100612.75;102511;278;119636;-59
2023/03/19 02:56:51;;;;;;;28.20;14.80;;;;;;;4.96;53.98;100612.21;102579;279;105056;-54
2023/03/19 02:59:27;;;;;;;28.30;15.00;;;;;;;4.94;54.39;100611.56;102521;278;115118;-54
2023/03/19 03:02:04;;;;;;;26.80;15.50;;;;;;;4.90;54.32;100616.77;102505;278;92380;-57
2023/03/19 03:04:40;;;;;;;26.80;14.40;;;;;;;4.87;54.42;100617.96;102561;279;97307;-57
2023/03/19 03:07:16;;;;;;;26.60;14.90;;;;;;;4.81;54.71;100618.19;102521;279;120561;-58
2023/03/19 03:09:57;;;;;;;30.50;15.80;;;;;;;4.75;54.83;100622.60;102411;279;106023;-58
2023/03/19 03:12:39;;;;;;;29.60;15.60;;;;;;;4.68;54.99;100619.70;102553;279;114324;-54
2023/03/19 03:15:18;;;;;;;26.10;14.10;;;;;;;4.65;55.14;100613.40;102554;279;94031;-54
2023/03/19 03:17:58;;;;;;;28.50;16.00;;;;;;;4.63;55.19;100612.23;102642;279;96901;-53
2023/03/19 03:20:38;;;;;;;27.30;15.30;;;;;;;4.63;55.25;100614.89;102541;279;120897;-54
2023/03/19 03:23:23;;;;;;;26.30;14.50;;;;;;;4.62;55.42;100616.02;102542;279;104769;-58
2023/03/19 03:26:06;;;;;;;27.30;15.40;;;;;;;4.62;55.39;100614.36;102510;279;113060;-59
2023/03/19 03:28:51;;;;;;;25.90;14.70;;;;;;;4.62;55.80;100614.40;102523;279;92493;-59
2023/03/19 03:31:31;;;;;;;26.20;14.70;;;;;;;4.62;55.66;100616.23;102534;279;97960;-57
2023/03/19 03:34:11;;;;;;;24.30;14.60;;;;;;;4.61;55.71;100613.85;102482;279;120527;-55
2023/03/19 03:36:55;;;;;;;25.40;14.70;;;;;;;4.60;55.54;100612.36;102501;278;105452;-59
2023/03/19 03:39:39;;;;;;;27.30;15.20;;;;;;;4.57;55.71;100612.55;102521;279;114190;-59
2023/03/19 03:42:19;;;;;;;26.30;15.00;;;;;;;4.54;55.97;100607.05;102529;279;93941;-54
2023/03/19 03:45:01;;;;;;;27.10;14.70;;;;;;;4.52;55.86;100609.56;102548;279;98153;-54
2023/03/19 03:47:39;;;;;;;27.70;16.00;;;;;;;4.51;55.94;100610.36;102500;279;122047;-58
2023/03/19 03:50:23;;;;;;;27.10;14.40;;;;;;;4.49;55.85;100614.10;102489;278;104916;-58
2023/03/19 03:53:02;;;;;;;32.70;16.70;;;;;;;4.45;55.99;100606.09;102541;278;114346;-58
2023/03/19 03:55:41;;;;;;;27.60;15.60;;;;;;;4.43;55.98;100602.01;102492;279;93830;-58
2023/03/19 03:58:17;;;;;;;31.90;17.00;;;;;;;4.39;56.07;100604.33;102550;278;97665;-55
2023/03/19 04:00:54;;;;;;;26.00;16.90;;;;;;;4.36;56.25;100604.26;102534;279;120767;-54
2023/03/19 04:03:36;;;;;;;25.30;15.30;;;;;;;4.32;56.29;100607.14;102478;278;105687;-54
2023/03/19 04:06:18;;;;;;;31.20;16.70;;;;;;;4.29;56.34;100601.77;102526;278;114064;-54
2023/03/19 04:08:57;;;;;;;34.00;16.60;;;;;;;4.26;56.52;100604.53;102501;278;92776;-58
2023/03/19 04:11:37;;;;;;;36.00;19.30;;;;;;;4.25;56.56;100603.72;102475;279;97991;-57
2023/03/19 04:14:11;;;;;;;30.30;16.30;;;;;;;4.24;56.65;100603.66;102486;279;121276;-57
2023/03/19 04:16:48;;;;;;;28.30;15.30;;;;;;;4.23;56.54;100602.38;102484;278;106249;-58
2023/03/19 04:19:23;;;;;;;30.40;16.70;;;;;;;4.18;56.60;100605.95;102523;278;115490;-58
2023/03/19 04:22:03;;;;;;;28.90;15.90;;;;;;;4.13;56.62;100598.22;102516;278;93403;-54
2023/03/19 04:24:41;;;;;;;30.90;15.50;;;;;;;4.12;56.69;100599.94;102568;278;98247;-53
2023/03/19 04:27:15;;;;;;;25.10;14.40;;;;;;;4.09;56.74;100601.33;102551;278;121087;-54
2023/03/19 04:29:57;;;;;;;25.50;13.80;;;;;;;4.07;56.64;100596.69;102567;278;103852;-53
2023/03/19 04:32:34;;;;;;;28.10;13.60;;;;;;;4.06;56.58;100596.44;102421;279;112977;-57
2023/03/19 04:35:10;;;;;;;22.20;13.50;;;;;;;4.03;56.70;100597.20;102400;279;93475;-57
2023/03/19 04:37:49;;;;;;;23.60;13.10;;;;;;;4.00;56.74;100597.66;102442;279;97386;-54
2023/03/19 04:40:26;;;;;;;26.60;14.70;;;;;;;3.96;56.89;100604.16;102421;279;121146;-54
2023/03/19 04:43:09;;;;;;;23.00;13.10;;;;;;;3.87;57.04;100596.12;102443;279;106453;-53
2023/03/19 04:45:44;;;;;;;25.80;13.60;;;;;;;3.78;57.21;100596.80;102448;278;114714;-57
2023/03/19 04:48:22;;;;;;;;;;;;;;;3.75;57.58;100595.79;102537;278;92104;-59
2023/03/19 04:50:59;;;;;;;27.00;14.20;;;;;;;3.74;57.76;100593.40;102544;278;95499;-60
2023/03/19 04:53:34;;;;;;;28.80;16.20;;;;;;;3.74;57.96;100597.89;102567;279;120346;-59
2023/03/19 04:56:08;;;;;;;;;;;;;;;3.77;58.05;100600.02;102561;278;104806;-61
2023/03/19 04:58:50;;;;;;;31.60;16.60;;;;;;;3.82;58.01;100601.21;102508;278;114795;-56
2023/03/19 05:01:28;;;;;;;29.10;15.00;;;;;;;3.84;58.16;100602.39;102532;278;93880;-56
2023/03/19 05:04:03;;;;;;;29.70;15.30;;;;;;;3.84;58.12;100602.92;102606;279;97316;-55
2023/03/19 05:06:44;;;;;;;27.00;15.90;;;;;;;3.86;57.99;100606.67;102559;278;119758;-59
2023/03/19 05:09:23;;;;;;;28.40;15.50;;;;;;;3.85;58.09;100609.41;102562;279;105508;-59
2023/03/19 05:12:02;;;;;;;25.60;14.20;;;;;;;3.84;58.20;100613.81;102578;279;114371;-55
2023/03/19 05:14:45;;;;;;;27.50;15.10;;;;;;;3.86;58.16;100616.71;102514;279;92162;-55
2023/03/19 05:17:23;;;;;;;23.50;14.40;;;;;;;3.85;58.15;100617.30;102581;279;98223;-59
2023/03/19 05:20:03;;;;;;;24.60;14.20;;;;;;;3.86;58.21;100617.58;102524;278;120776;-60
2023/03/19 05:22:47;;;;;;;27.10;14.60;;;;;;;3.87;58.20;100613.39;102509;278;105432;-56
2023/03/19 05:25:26;;;;;;;28.30;15.30;;;;;;;3.94;58.24;100615.92;102494;278;113760;-55
2023/03/19 05:28:12;;;;;;;27.20;15.40;;;;;;;4.06;58.32;100616.08;102500;275;92799;-55
2023/03/19 05:30:54;;;;;;;28.10;15.90;;;;;;;4.25;58.32;100617.83;102495;279;97213;-55
2023/03/19 05:33:33;;;;;;;27.40;15.00;;;;;;;4.39;58.29;100621.09;102520;279;119790;-53
2023/03/19 05:36:11;;;;;;;26.40;16.40;;;;;;;4.56;58.28;100615.77;102535;278;106297;-54
2023/03/19 05:38:52;;;;;;;34.60;18.20;;;;;;;4.76;58.00;100615.90;102541;278;113860;-54
2023/03/19 05:41:31;;;;;;;29.70;16.90;;;;;;;4.93;57.91;100624.14;102532;278;92404;-58
2023/03/19 05:44:09;;;;;;;29.80;16.80;;;;;;;5.12;57.70;100620.83;102534;278;97995;-59
2023/03/19 05:46:46;;;;;;;26.10;15.50;;;;;;;5.34;57.43;100617.75;102596;278;119634;-56
2023/03/19 05:49:24;;;;;;;26.50;15.30;;;;;;;5.54;57.12;100612.55;102495;279;105646;-55
2023/03/19 05:52:02;;;;;;;21.90;13.60;;;;;;;5.79;57.06;100612.83;102434;281;113432;-55
2023/03/19 05:54:43;;;;;;;23.70;14.60;;;;;;;6.71;56.76;100614.75;102504;278;93011;-53
2023/03/19 05:57:25;;;;;;;26.10;14.90;;;;;;;9.01;55.92;100601.15;102551;278;97156;-59
2023/03/19 06:00:08;;;;;;;25.20;15.50;;;;;;;11.34;53.82;100597.89;102552;278;120838;-59
2023/03/19 06:02:50;;;;;;;22.90;14.80;;;;;;;13.18;51.64;100593.20;102521;278;105132;-55
2023/03/19 06:05:35;;;;;;;23.30;14.80;;;;;;;14.27;49.62;100595.75;102495;279;113478;-54
2023/03/19 06:11:59;;;;;;;21.80;14.20;;;;;;;16.64;44.85;100589.22;102634;277;95693;-56
2023/03/19 06:14:34;;;;;;;24.80;14.70;;;;;;;16.88;43.81;100587.47;102559;277;121579;-55
2023/03/19 06:17:12;;;;;;;21.80;14.20;;;;;;;16.80;42.45;100589.73;102485;278;103356;-55
2023/03/19 06:19:48;;;;;;;20.50;15.00;;;;;;;16.78;41.97;100595.21;102534;277;113863;-59
2023/03/19 06:22:25;;;;;;;22.00;15.50;;;;;;;15.95;41.45;100595.46;102550;277;94909;-58
2023/03/19 06:25:06;;;;;;;22.10;15.00;;;;;;;15.25;41.22;100598.56;102507;278;97947;-53
2023/03/19 06:27:42;;;;;;;20.00;14.90;;;;;;;14.89;41.38;100600.26;102529;278;121111;-54
2023/03/19 06:30:18;;;;;;;21.10;14.30;;;;;;;14.69;41.10;100613.02;102539;278;103710;-54
2023/03/19 06:33:01;;;;;;;21.80;14.70;;;;;;;14.57;41.16;100608.91;102524;278;114282;-55
2023/03/19 06:35:44;;;;;;;20.40;14.50;;;;;;;14.59;40.35;100609.30;102503;278;93388;-55
2023/03/19 06:38:20;;;;;;;22.80;14.60;;;;;;;14.42;40.42;100608.42;102521;278;96676;-55
2023/03/19 06:40:55;;;;;;;19.80;14.80;;;;;;;14.42;40.61;100609.67;102499;278;120986;-55
2023/03/19 06:43:35;;;;;;;21.90;14.90;;;;;;;14.76;40.12;100612.86;102617;277;104973;-60
2023/03/19 06:46:17;;;;;;;22.40;15.10;;;;;;;15.71;39.86;100608.32;102536;277;114806;-60
2023/03/19 06:48:54;;;;;;;21.70;15.30;;;;;;;16.17;39.57;100608.79;102522;278;94728;-58
2023/03/19 06:51:30;;;;;;;18.70;14.00;;;;;;;17.02;38.71;100609.95;102561;277;97052;-59
2023/03/19 06:54:09;;;;;;;20.30;15.60;;;;;;;17.24;37.74;100613.12;102554;277;120483;-60
2023/03/19 06:56:46;;;;;;;20.40;14.60;;;;;;;17.15;37.71;100613.05;102560;277;105180;-60
2023/03/19 06:59:21;;;;;;;20.70;15.00;;;;;;;17.11;37.28;100606.66;102524;277;113371;-54
2023/03/19 07:01:58;;;;;;;19.10;14.30;;;;;;;16.56;36.92;100606.64;102537;277;94974;-53
2023/03/19 07:04:36;;;;;;;21.60;15.10;;;;;;;16.07;37.10;100616.45;102561;277;97164;-58
2023/03/19 07:07:12;;;;;;;21.80;15.30;;;;;;;16.02;36.86;100619.08;102537;277;119822;-59
2023/03/19 07:09:58;;;;;;;22.80;14.80;;;;;;;16.04;36.52;100624.11;102539;277;105687;-60
2023/03/19 07:12:36;;;;;;;20.00;14.70;;;;;;;16.09;36.22;100619.71;102534;277;113256;-61
2023/03/19 07:15:12;;;;;;;20.60;14.40;;;;;;;15.86;36.71;100624.70;102539;277;94768;-60
2023/03/19 07:17:56;;;;;;;20.10;14.90;;;;;;;15.72;36.88;100620.77;102519;277;97405;-57
2023/03/19 07:20:36;;;;;;;19.60;13.90;;;;;;;15.88;37.03;100623.02;102555;277;119392;-55
2023/03/19 07:23:16;;;;;;;18.70;13.90;;;;;;;16.31;36.87;100629.20;102516;277;105203;-60
2023/03/19 07:25:55;;;;;;;22.10;14.50;;;;;;;17.13;36.50;100628.48;102505;277;114303;-60
2023/03/19 07:28:30;;;;;;;21.30;14.20;;;;;;;17.87;36.13;100626.27;102539;277;94165;-56
2023/03/19 07:31:12;;;;;;;18.20;14.40;;;;;;;18.91;35.39;100628.52;102543;278;97880;-54
2023/03/19 07:33:54;;;;;;;19.30;14.40;;;;;;;19.05;34.83;100628.02;102503;277;120866;-58
2023/03/19 07:36:33;;;;;;;20.10;15.40;;;;;;;19.32;34.18;100630.39;102041;279;583689;-59
2023/03/19 07:39:16;;;;;;;18.60;14.10;;;;;;;19.84;34.34;100622.95;102517;279;112881;-59
2023/03/19 07:41:52;;;;;;;20.00;15.10;;;;;;;20.20;34.26;100621.84;102519;278;94177;-59
2023/03/19 07:44:27;;;;;;;20.50;14.00;;;;;;;21.20;33.87;100622.05;102557;279;96946;-56
2023/03/19 07:47:04;;;;;;;18.20;14.40;;;;;;;21.97;33.45;100623.45;102532;279;120317;-55
2023/03/19 07:49:44;;;;;;;19.00;14.90;;;;;;;22.94;32.39;100624.75;102393;278;104787;-55
2023/03/19 07:52:27;;;;;;;18.40;14.80;;;;;;;23.33;31.96;100626.27;102530;278;112866;-55
2023/03/19 07:55:10;;;;;;;17.70;14.70;;;;;;;23.78;31.37;100626.16;102529;279;92820;-54
2023/03/19 07:57:48;;;;;;;18.10;15.10;;;;;;;24.55;30.90;100621.33;102489;277;96313;-55
2023/03/19 08:00:25;;;;;;;17.10;14.20;;;;;;;25.22;29.99;100615.74;102402;279;120863;-55
2023/03/19 08:03:02;;;;;;;16.10;13.60;;;;;;;25.99;30.11;100617.02;102590;279;104592;-55
2023/03/19 08:05:40;;;;;;;19.20;14.80;;;;;;;26.45;29.51;100616.51;102522;277;113942;-55
2023/03/19 08:08:19;;;;;;;20.10;14.50;;;;;;;26.51;28.65;100614.90;102580;277;93908;-56
2023/03/19 08:10:55;;;;;;;17.20;14.90;;;;;;;26.39;28.91;100611.56;102566;277;96662;-55
2023/03/19 08:13:35;;;;;;;18.20;14.50;;;;;;;26.92;28.41;100615.17;102589;277;119117;-59
2023/03/19 08:16:14;;;;;;;17.00;14.00;;;;;;;27.36;27.45;100615.61;102571;277;105696;-58
2023/03/19 08:18:53;;;;;;;16.60;14.00;;;;;;;26.91;27.72;100612.83;102564;277;113734;-61
2023/03/19 08:21:32;;;;;;;14.90;13.20;;;;;;;26.25;27.44;100609.29;102549;277;94697;-60
2023/03/19 08:24:09;;;;;;;15.70;13.90;;;;;;;26.31;27.48;100608.59;102588;277;96034;-54
2023/03/19 08:26:51;;;;;;;17.90;14.60;;;;;;;25.99;27.00;100612.30;102547;277;119745;-56
2023/03/19 08:29:28;;;;;;;16.10;14.10;;;;;;;25.20;27.14;100613.86;102559;277;104240;-57
2023/03/19 08:32:07;;;;;;;16.60;14.30;;;;;;;24.63;27.41;100616.90;102588;277;115099;-56
2023/03/19 08:34:43;;;;;;;15.70;13.70;;;;;;;24.12;27.84;100615.63;102564;277;94769;-56
2023/03/19 08:37:28;;;;;;;17.10;14.00;;;;;;;23.66;28.14;100618.46;102567;277;97528;-55
2023/03/19 08:40:05;;;;;;;16.70;14.10;;;;;;;23.59;28.10;100618.87;102521;277;120229;-60
2023/03/19 08:42:41;;;;;;;17.70;14.50;;;;;;;23.43;28.22;100615.00;102533;277;105888;-60
2023/03/19 08:45:20;;;;;;;17.00;14.30;;;;;;;23.13;28.45;100612.97;102538;278;112572;-59
2023/03/19 08:48:00;;;;;;;17.20;14.60;;;;;;;23.01;28.82;100614.94;102541;277;93376;-59
2023/03/19 08:50:35;;;;;;;17.50;14.10;;;;;;;22.80;28.92;100616.77;102533;277;96691;-60
2023/03/19 08:53:15;;;;;;;17.60;13.80;;;;;;;22.46;29.13;100615.27;102535;277;120470;-55
2023/03/19 08:55:57;;;;;;;16.40;13.30;;;;;;;22.33;29.17;100614.31;102587;277;105059;-55
2023/03/19 08:58:41;;;;;;;14.80;12.90;;;;;;;22.40;29.37;100612.93;102553;277;114908;-55
2023/03/19 09:01:24;;;;;;;16.60;12.90;;;;;;;22.56;29.49;100617.22;102522;277;93115;-54
2023/03/19 09:04:04;;;;;;;15.30;13.60;;;;;;;22.22;29.03;100612.48;102592;277;98369;-56
2023/03/19 09:06:49;;;;;;;15.00;12.40;;;;;;;21.86;29.20;100607.77;102548;277;120999;-56
2023/03/19 09:09:32;;;;;;;15.70;12.30;;;;;;;21.71;28.89;100612.19;102489;277;103778;-56
2023/03/19 09:12:09;;;;;;;13.80;11.30;;;;;;;21.27;29.02;100613.27;102392;279;114344;-55
2023/03/19 09:14:45;;;;;;;14.00;11.90;;;;;;;21.09;29.05;100618.19;102464;279;93059;-61
2023/03/19 09:17:27;;;;;;;13.40;11.40;;;;;;;21.10;29.41;100619.56;102428;279;97798;-60
2023/03/19 09:20:06;;;;;;;13.40;11.50;;;;;;;21.18;29.57;100617.00;102430;279;119278;-56
2023/03/19 09:22:43;;;;;;;15.30;12.00;;;;;;;21.10;29.48;100616.98;102382;279;105223;-56
2023/03/19 09:25:25;;;;;;;13.70;12.10;;;;;;;21.40;29.57;100612.73;102424;279;112336;-55
2023/03/19 09:28:02;;;;;;;13.00;11.00;;;;;;;21.78;29.56;100610.46;102442;279;94759;-55
2023/03/19 09:30:40;;;;;;;15.10;11.00;;;;;;;22.16;29.13;100614.70;102437;279;98063;-55
2023/03/19 09:33:23;;;;;;;15.80;11.70;;;;;;;22.21;28.99;100609.35;102436;279;119131;-56
2023/03/19 09:36:04;;;;;;;13.00;10.80;;;;;;;22.25;28.85;100604.73;102408;279;105265;-56
2023/03/19 09:38:42;;;;;;;13.10;10.90;;;;;;;22.31;29.03;100603.73;102427;279;113461;-59
2023/03/19 09:41:27;;;;;;;14.90;11.10;;;;;;;22.27;28.86;100601.04;102461;279;92167;-62
2023/03/19 09:44:22;;;;;;;13.70;11.10;;;;;;;21.94;29.01;100589.57;102507;279;97374;-58
2023/03/19 09:47:07;;;;;;;12.40;11.10;;;;;;;21.77;28.85;100590.81;102441;279;121260;-59
2023/03/19 09:49:49;;;;;;;12.60;11.00;;;;;;;22.17;28.98;100592.79;102481;279;105201;-54
2023/03/19 09:52:41;;;;;;;15.60;11.50;;;;;;;21.98;28.74;100590.40;102505;279;115423;-55
2023/03/19 09:55:37;;;;;;;12.70;10.90;;;;;;;21.66;28.49;100594.05;102444;279;95562;-59
2023/03/19 09:58:23;;;;;;;13.30;10.90;;;;;;;21.36;28.40;100590.29;102423;268;95806;-57
2023/03/19 10:01:03;;;;;;;12.90;10.70;;;;;;;20.72;29.19;100592.15;102381;280;121800;-58
2023/03/19 10:04:01;;;;;;;14.60;11.50;;;;;;;20.50;29.13;100593.05;102373;280;105535;-55
2023/03/19 10:06:46;;;;;;;14.80;11.60;;;;;;;20.36;29.24;100594.21;102372;280;114658;-54
2023/03/19 10:09:43;;;;;;;13.40;11.30;;;;;;;20.02;28.81;100587.06;102462;279;93650;-60
2023/03/19 10:12:40;;;;;;;12.80;11.10;;;;;;;19.98;29.27;100594.33;102529;279;98230;-55
2023/03/19 10:15:32;;;;;;;13.10;10.50;;;;;;;19.90;29.56;100595.44;102510;279;121284;-55
2023/03/19 10:18:12;;;;;;;12.80;10.30;;;;;;;19.70;29.02;100599.09;102558;279;104738;-60
2023/03/19 10:21:01;;;;;;;11.80;10.20;;;;;;;19.33;29.67;100601.61;102423;279;114032;-57
2023/03/19 10:23:47;;;;;;;12.10;9.70;;;;;;;19.04;30.13;100600.95;102451;279;91947;-54
2023/03/19 10:26:30;;;;;;;13.40;10.50;;;;;;;18.73;30.27;100598.80;102506;279;98000;-54
2023/03/19 10:29:21;;;;;;;13.80;10.30;;;;;;;18.53;30.64;100593.49;102486;268;119107;-55
2023/03/19 10:32:04;;;;;;;13.40;9.50;;;;;;;18.40;31.01;100591.88;102465;279;105442;-55
2023/03/19 10:34:44;;;;;;;13.80;10.60;;;;;;;18.33;31.16;100591.66;102510;279;115093;-54
2023/03/19 10:37:25;;;;;;;13.90;11.50;;;;;;;18.35;31.32;100591.61;102462;279;94199;-54
2023/03/19 10:40:04;;;;;;;12.50;10.20;;;;;;;18.29;31.61;100590.80;102452;279;97353;-55
2023/03/19 10:43:02;;;;;;;14.70;10.50;;;;;;;18.13;31.66;100595.77;102489;279;120043;-55
2023/03/19 10:45:43;;;;;;;10.60;9.10;;;;;;;18.03;31.85;100597.13;102461;279;105401;-59
2023/03/19 10:48:25;;;;;;;12.10;9.90;;;;;;;17.66;32.05;100595.77;102447;279;114511;-58
2023/03/19 10:51:05;;;;;;;13.80;11.10;;;;;;;17.74;32.43;100600.20;102504;279;94403;-58
2023/03/19 10:53:52;;;;;;;15.00;9.90;;;;;;;17.72;32.60;100598.17;102462;279;98151;-54
2023/03/19 10:56:29;;;;;;;12.70;10.10;;;;;;;18.02;32.68;100598.79;102515;279;120343;-55
2023/03/19 10:59:06;;;;;;;13.40;10.20;;;;;;;18.27;32.60;100595.80;102538;279;104697;-55
2023/03/19 11:01:48;;;;;;;13.50;10.30;;;;;;;18.49;32.30;100589.55;102307;280;115063;-54
2023/03/19 11:04:32;;;;;;;13.70;10.00;;;;;;;18.69;32.15;100587.38;102382;279;94313;-58
2023/03/19 11:07:21;;;;;;;12.00;9.50;;;;;;;18.84;32.01;100589.26;102433;268;97886;-59
2023/03/19 11:10:13;;;;;;;13.10;9.90;;;;;;;18.59;31.88;100592.30;102413;279;119957;-54
2023/03/19 11:13:00;;;;;;;11.90;9.00;;;;;;;18.60;32.19;100581.64;102581;278;106010;-54
2023/03/19 11:15:40;;;;;;;10.90;9.40;;;;;;;18.79;32.32;100585.42;102506;278;114353;-54
2023/03/19 11:18:25;;;;;;;14.90;9.40;;;;;;;18.67;32.29;100577.48;102496;278;92709;-57
2023/03/19 11:21:06;;;;;;;11.90;9.00;;;;;;;18.72;32.24;100571.02;102517;278;98290;-59
2023/03/19 11:23:59;;;;;;;12.50;9.50;;;;;;;18.71;32.15;100563.67;102540;278;119077;-54
2023/03/19 11:26:39;;;;;;;13.30;9.60;;;;;;;18.58;32.07;100564.79;102467;278;104715;-54
2023/03/19 11:29:23;;;;;;;12.60;9.30;;;;;;;18.59;32.36;100557.91;102495;278;114533;-54
2023/03/19 11:32:16;;;;;;;12.70;9.60;;;;;;;18.75;32.60;100555.13;102494;278;94544;-54
2023/03/19 11:35:00;;;;;;;12.90;9.90;;;;;;;18.74;32.53;100549.56;102545;278;97462;-60
2023/03/19 11:37:58;;;;;;;12.70;10.20;;;;;;;18.43;32.06;100547.54;102543;278;118918;-60
2023/03/19 11:40:46;;;;;;;12.30;10.50;;;;;;;18.08;32.29;100543.17;102457;279;105939;-54
2023/03/19 11:43:47;;;;;;;12.50;9.40;;;;;;;17.98;32.72;100533.88;102487;279;114853;-55
2023/03/19 11:46:35;;;;;;;13.30;9.70;;;;;;;18.02;32.97;100528.77;102480;279;93675;-54
2023/03/19 11:49:52;;;;;;;11.00;9.20;;;;;;;17.99;32.88;100529.80;102528;279;97338;-60
2023/03/19 11:52:41;;;;;;;12.10;9.10;;;;;;;17.98;33.03;100525.42;102476;278;120023;-58
2023/03/19 11:55:30;;;;;;;13.00;9.40;;;;;;;17.92;33.12;100523.00;102503;278;104571;-59
2023/03/19 11:58:48;;;;;;;12.40;9.50;;;;;;;17.98;33.23;100522.10;102508;278;113283;-60
2023/03/19 12:02:04;;;;;;;11.60;8.60;;;;;;;18.05;33.37;100517.48;102342;279;96299;-59
2023/03/19 12:05:10;;;;;;;11.00;8.80;;;;;;;18.17;33.13;100512.99;102552;278;97039;-58
2023/03/19 12:08:02;;;;;;;12.00;8.80;;;;;;;18.19;33.11;100516.70;102537;278;118309;-59
2023/03/19 12:10:59;;;;;;;13.10;9.40;;;;;;;18.02;33.09;100517.91;102485;278;104360;-54
2023/03/19 12:17:27;;;;;;;13.50;9.70;;;;;;;17.98;33.31;100515.91;102190;281;94172;-56
2023/03/19 12:20:26;;;;;;;12.30;8.80;;;;;;;17.78;33.12;100517.79;102457;278;100066;-56